Terminal Aerodrome Forecast
Issued by NWS

Home | Current Version | Previous Version | Text Only | Print | Product List | Glossary On
Versions: 1 2 3 4 5 6 7 8 9 10 11 12 13 14 15 16 17
347
FTUS41 KBTV 242118 AAA
TAFMPV
TAF AMD
KMPV 242118Z 2421/2518 18010KT 5SM -FZRASN BR SCT010 OVC020
      TEMPO 2421/2423 3/4SM -SN BR OVC012
     FM242300 19008KT 3SM -RASNPL BR OVC010
     FM250000 20006KT 3SM -RAPL BR OVC008
     FM250400 28005KT P6SM VCSH OVC015
     FM250700 31005KT P6SM VCSH OVC020
     FM251200 36004KT P6SM OVC025=

USA.gov is the U.S. government's official web portal to all federal, state and local government web resources and services.